Airfield :
LOGIN :

Register | Disclaimer

   EN    FR    IT 

 










Legend :    VFR   Marginal VFR   IFR   Intensive IFR   Very Intensive IFR
Visi :
Ceiling :
>= 8 km
>= 3000ft
5 to 8 km
1000 to 3000 ft
1500m to 5 km
500 to 1000 ft
800 to 1500m
200 to 500 ft
< 800m
< 200 ft
Symbols :   Thunderstorms  Fog  Heavy snow  Heavy precipitations  Wind > 20 kt
SIGMETs :     Misc.  Thunderstorms  Icing  Turbulence  Mountain Waves  Volcanic Ashes






- Airport Elevation : 1906 ft
- IATA code : INN


LOWI - Innsbruck

CURRENT METAR :
  • 020120Z AUTO VRB02KT 9999 NCD M01/M04 Q1032

EXPIRED METARs :
  • 020050Z AUTO 26003KT 9999 NCD M01/M04 Q1032
  • 020020Z AUTO VRB02KT 9999 NCD M00/M04 Q1032
  • 012350Z AUTO 24003KT 200V270 9999 NCD M00/M04 Q1032
  • 012320Z AUTO VRB01KT 9999 NCD 01/M03 Q1032
  • 012250Z AUTO 24002KT 9999 NCD 01/M04 Q1032

TAF TAF LOWI
Valid from the 02 at 00:00 until the 03 at 00:00 UTC


012315Z 0200/0224 VRB03KT CAVOK TX16/0215Z TNM03/0206Z



MET'MAP, your aeronautical weather chart ! - Copyright ORBIFLY December 2007 - Disclaimer

ORBIFLY MET'MAP TEAM :

Programming & Development : Alexandra Zaïnal
Concept & original design : Baudouin d'Aumeries
Assistance for programming : Marc-Olivier Méhu
Technical & hardware support : Manuel Goepfert

Contact : metmap@orbifly.com




SOURCES & CREDITS :

   NOAA